sensor_id;sensor_type;location;lat;lon;timestamp;temperature;humidity
5278;DHT22;2662;51.194;6.614;2022-12-18T00:02:05;-3.50;99.90
5278;DHT22;2662;51.194;6.614;2022-12-18T00:04:32;-3.50;99.90
5278;DHT22;2662;51.194;6.614;2022-12-18T00:07:00;-3.50;99.90
5278;DHT22;2662;51.194;6.614;2022-12-18T00:09:27;-3.50;99.90
5278;DHT22;2662;51.194;6.614;2022-12-18T00:11:53;-3.50;99.90
5278;DHT22;2662;51.194;6.614;2022-12-18T00:14:20;-3.50;99.90
5278;DHT22;2662;51.194;6.614;2022-12-18T00:16:47;-3.50;99.90
5278;DHT22;2662;51.194;6.614;2022-12-18T00:19:14;-3.50;99.90
5278;DHT22;2662;51.194;6.614;2022-12-18T00:21:41;-3.50;99.90
5278;DHT22;2662;51.194;6.614;2022-12-18T00:24:10;-3.50;99.90
5278;DHT22;2662;51.194;6.614;2022-12-18T00:26:38;-3.60;99.90
5278;DHT22;2662;51.194;6.614;2022-12-18T00:29:09;-3.50;99.90
5278;DHT22;2662;51.194;6.614;2022-12-18T00:31:37;-3.50;99.90
5278;DHT22;2662;51.194;6.614;2022-12-18T00:34:04;-3.50;99.90
5278;DHT22;2662;51.194;6.614;2022-12-18T00:36:32;-3.50;99.90
5278;DHT22;2662;51.194;6.614;2022-12-18T00:39:01;-3.50;99.90
5278;DHT22;2662;51.194;6.614;2022-12-18T00:41:30;-3.50;99.90
5278;DHT22;2662;51.194;6.614;2022-12-18T00:44:16;-3.50;99.90
5278;DHT22;2662;51.194;6.614;2022-12-18T00:46:44;-3.50;99.90
5278;DHT22;2662;51.194;6.614;2022-12-18T00:49:12;-3.50;99.90
5278;DHT22;2662;51.194;6.614;2022-12-18T00:51:39;-3.50;99.90
5278;DHT22;2662;51.194;6.614;2022-12-18T00:54:06;-3.50;99.90
5278;DHT22;2662;51.194;6.614;2022-12-18T00:56:35;-3.50;99.90
5278;DHT22;2662;51.194;6.614;2022-12-18T00:59:02;-3.60;99.90
5278;DHT22;2662;51.194;6.614;2022-12-18T01:01:29;-3.60;99.90
5278;DHT22;2662;51.194;6.614;2022-12-18T01:03:56;-3.60;99.90
5278;DHT22;2662;51.194;6.614;2022-12-18T01:06:22;-3.60;99.90
5278;DHT22;2662;51.194;6.614;2022-12-18T01:08:49;-3.60;99.90
5278;DHT22;2662;51.194;6.614;2022-12-18T01:11:18;-3.60;99.90
5278;DHT22;2662;51.194;6.614;2022-12-18T01:13:47;-3.60;99.90
5278;DHT22;2662;51.194;6.614;2022-12-18T01:16:15;-3.60;99.90
5278;DHT22;2662;51.194;6.614;2022-12-18T01:18:42;-3.60;99.90
5278;DHT22;2662;51.194;6.614;2022-12-18T01:21:10;-3.60;99.90
5278;DHT22;2662;51.194;6.614;2022-12-18T01:23:37;-3.60;99.90
5278;DHT22;2662;51.194;6.614;2022-12-18T01:26:05;-3.70;99.90
5278;DHT22;2662;51.194;6.614;2022-12-18T01:28:32;-3.60;99.90
5278;DHT22;2662;51.194;6.614;2022-12-18T01:31:15;-3.70;99.90
5278;DHT22;2662;51.194;6.614;2022-12-18T01:33:42;-3.70;99.90
5278;DHT22;2662;51.194;6.614;2022-12-18T01:36:15;-3.70;99.90
5278;DHT22;2662;51.194;6.614;2022-12-18T01:38:42;-3.70;99.90
5278;DHT22;2662;51.194;6.614;2022-12-18T01:41:09;-3.70;99.90
5278;DHT22;2662;51.194;6.614;2022-12-18T01:43:44;-3.70;99.90
5278;DHT22;2662;51.194;6.614;2022-12-18T01:46:13;-3.70;99.90
5278;DHT22;2662;51.194;6.614;2022-12-18T01:48:40;-3.70;99.90
5278;DHT22;2662;51.194;6.614;2022-12-18T01:51:09;-3.80;99.90
5278;DHT22;2662;51.194;6.614;2022-12-18T01:53:37;-3.70;99.90
5278;DHT22;2662;51.194;6.614;2022-12-18T01:56:05;-3.70;99.90
5278;DHT22;2662;51.194;6.614;2022-12-18T01:58:37;-3.70;99.90
5278;DHT22;2662;51.194;6.614;2022-12-18T02:01:06;-3.70;99.90
5278;DHT22;2662;51.194;6.614;2022-12-18T02:03:34;-3.70;99.90
5278;DHT22;2662;51.194;6.614;2022-12-18T02:06:05;-3.70;99.90
5278;DHT22;2662;51.194;6.614;2022-12-18T02:08:37;-3.70;99.90
5278;DHT22;2662;51.194;6.614;2022-12-18T02:11:08;-3.70;99.90
5278;DHT22;2662;51.194;6.614;2022-12-18T02:13:42;-3.70;99.90
5278;DHT22;2662;51.194;6.614;2022-12-18T02:16:18;-3.70;99.90
5278;DHT22;2662;51.194;6.614;2022-12-18T02:18:54;-3.70;99.90
5278;DHT22;2662;51.194;6.614;2022-12-18T02:21:31;-3.70;99.90
5278;DHT22;2662;51.194;6.614;2022-12-18T02:24:12;-3.70;99.90
5278;DHT22;2662;51.194;6.614;2022-12-18T02:26:45;-3.70;99.90
5278;DHT22;2662;51.194;6.614;2022-12-18T02:29:18;-3.70;99.90
5278;DHT22;2662;51.194;6.614;2022-12-18T02:31:52;-3.70;99.90
5278;DHT22;2662;51.194;6.614;2022-12-18T02:34:22;-3.70;99.90
5278;DHT22;2662;51.194;6.614;2022-12-18T02:36:51;-3.80;99.90
5278;DHT22;2662;51.194;6.614;2022-12-18T02:39:21;-3.80;99.90
5278;DHT22;2662;51.194;6.614;2022-12-18T02:41:50;-3.70;99.90
5278;DHT22;2662;51.194;6.614;2022-12-18T02:44:17;-3.70;99.90
5278;DHT22;2662;51.194;6.614;2022-12-18T02:46:46;-3.70;99.90
5278;DHT22;2662;51.194;6.614;2022-12-18T02:49:24;-3.60;99.90
5278;DHT22;2662;51.194;6.614;2022-12-18T02:51:54;-3.60;99.90
5278;DHT22;2662;51.194;6.614;2022-12-18T02:54:35;-3.50;99.90
5278;DHT22;2662;51.194;6.614;2022-12-18T02:57:13;-3.60;99.90
5278;DHT22;2662;51.194;6.614;2022-12-18T02:59:48;-3.60;99.90
5278;DHT22;2662;51.194;6.614;2022-12-18T03:02:21;-3.60;99.90
5278;DHT22;2662;51.194;6.614;2022-12-18T03:04:53;-3.50;99.90
5278;DHT22;2662;51.194;6.614;2022-12-18T03:07:28;-3.50;99.90
5278;DHT22;2662;51.194;6.614;2022-12-18T03:10:00;-3.50;99.90
5278;DHT22;2662;51.194;6.614;2022-12-18T03:12:31;-3.50;99.90
5278;DHT22;2662;51.194;6.614;2022-12-18T03:15:02;-3.50;99.90
5278;DHT22;2662;51.194;6.614;2022-12-18T03:17:32;-3.50;99.90
5278;DHT22;2662;51.194;6.614;2022-12-18T03:20:03;-3.50;99.90
5278;DHT22;2662;51.194;6.614;2022-12-18T03:22:32;-3.50;99.90
5278;DHT22;2662;51.194;6.614;2022-12-18T03:25:01;-3.50;99.90
5278;DHT22;2662;51.194;6.614;2022-12-18T03:27:32;-3.50;99.90
5278;DHT22;2662;51.194;6.614;2022-12-18T03:30:02;-3.50;99.90
5278;DHT22;2662;51.194;6.614;2022-12-18T03:32:38;-3.50;99.90
5278;DHT22;2662;51.194;6.614;2022-12-18T03:35:07;-3.50;99.90
5278;DHT22;2662;51.194;6.614;2022-12-18T03:37:34;-3.50;99.90
5278;DHT22;2662;51.194;6.614;2022-12-18T03:40:02;-3.50;99.90
5278;DHT22;2662;51.194;6.614;2022-12-18T03:42:34;-3.50;99.90
5278;DHT22;2662;51.194;6.614;2022-12-18T03:45:08;-3.50;99.90
5278;DHT22;2662;51.194;6.614;2022-12-18T03:47:40;-3.50;99.90
5278;DHT22;2662;51.194;6.614;2022-12-18T03:50:12;-3.50;99.90
5278;DHT22;2662;51.194;6.614;2022-12-18T03:52:42;-3.50;99.90
5278;DHT22;2662;51.194;6.614;2022-12-18T03:55:12;-3.50;99.90
5278;DHT22;2662;51.194;6.614;2022-12-18T03:57:42;-3.50;99.90
5278;DHT22;2662;51.194;6.614;2022-12-18T04:00:12;-3.50;99.90
5278;DHT22;2662;51.194;6.614;2022-12-18T04:02:43;-3.40;99.90
5278;DHT22;2662;51.194;6.614;2022-12-18T04:05:12;-3.40;99.90
5278;DHT22;2662;51.194;6.614;2022-12-18T04:07:40;-3.40;99.90
5278;DHT22;2662;51.194;6.614;2022-12-18T04:10:08;-3.40;99.90
5278;DHT22;2662;51.194;6.614;2022-12-18T04:12:37;-3.40;99.90
5278;DHT22;2662;51.194;6.614;2022-12-18T04:15:07;-3.40;99.90
5278;DHT22;2662;51.194;6.614;2022-12-18T04:17:34;-3.40;99.90
5278;DHT22;2662;51.194;6.614;2022-12-18T04:20:01;-3.30;99.90
5278;DHT22;2662;51.194;6.614;2022-12-18T04:22:27;-3.30;99.90
5278;DHT22;2662;51.194;6.614;2022-12-18T04:24:54;-3.30;99.90
5278;DHT22;2662;51.194;6.614;2022-12-18T04:27:21;-3.30;99.90
5278;DHT22;2662;51.194;6.614;2022-12-18T04:29:48;-3.30;99.90
5278;DHT22;2662;51.194;6.614;2022-12-18T04:32:16;-3.30;99.90
5278;DHT22;2662;51.194;6.614;2022-12-18T04:34:42;-3.30;99.90
5278;DHT22;2662;51.194;6.614;2022-12-18T04:37:09;-3.30;99.90
5278;DHT22;2662;51.194;6.614;2022-12-18T04:39:36;-3.30;99.90
5278;DHT22;2662;51.194;6.614;2022-12-18T04:42:03;-3.30;99.90
5278;DHT22;2662;51.194;6.614;2022-12-18T04:44:30;-3.30;99.90
5278;DHT22;2662;51.194;6.614;2022-12-18T04:46:56;-3.20;99.90
5278;DHT22;2662;51.194;6.614;2022-12-18T04:49:24;-3.20;99.90
5278;DHT22;2662;51.194;6.614;2022-12-18T04:51:51;-3.30;99.90
5278;DHT22;2662;51.194;6.614;2022-12-18T04:54:19;-3.30;99.90
5278;DHT22;2662;51.194;6.614;2022-12-18T04:56:46;-3.30;99.90
5278;DHT22;2662;51.194;6.614;2022-12-18T04:59:13;-3.30;99.90
5278;DHT22;2662;51.194;6.614;2022-12-18T05:01:40;-3.30;99.90
5278;DHT22;2662;51.194;6.614;2022-12-18T05:04:06;-3.20;99.90
5278;DHT22;2662;51.194;6.614;2022-12-18T05:06:34;-3.20;99.90
5278;DHT22;2662;51.194;6.614;2022-12-18T05:09:01;-3.20;99.90
5278;DHT22;2662;51.194;6.614;2022-12-18T05:11:28;-3.30;99.90
5278;DHT22;2662;51.194;6.614;2022-12-18T05:13:54;-3.20;99.90
5278;DHT22;2662;51.194;6.614;2022-12-18T05:16:21;-3.30;99.90
5278;DHT22;2662;51.194;6.614;2022-12-18T05:18:48;-3.30;99.90
5278;DHT22;2662;51.194;6.614;2022-12-18T05:21:15;-3.30;99.90
5278;DHT22;2662;51.194;6.614;2022-12-18T05:23:43;-3.30;99.90
5278;DHT22;2662;51.194;6.614;2022-12-18T05:26:14;-3.30;99.90
5278;DHT22;2662;51.194;6.614;2022-12-18T05:28:41;-3.20;99.90
5278;DHT22;2662;51.194;6.614;2022-12-18T05:31:09;-3.20;99.90
5278;DHT22;2662;51.194;6.614;2022-12-18T05:33:36;-3.20;99.90
5278;DHT22;2662;51.194;6.614;2022-12-18T05:36:05;-3.20;99.90
5278;DHT22;2662;51.194;6.614;2022-12-18T05:38:34;-3.20;99.90
5278;DHT22;2662;51.194;6.614;2022-12-18T05:41:03;-3.20;99.90
5278;DHT22;2662;51.194;6.614;2022-12-18T05:43:30;-3.10;99.90
5278;DHT22;2662;51.194;6.614;2022-12-18T05:45:57;-3.10;99.90
5278;DHT22;2662;51.194;6.614;2022-12-18T05:48:24;-3.10;99.90
5278;DHT22;2662;51.194;6.614;2022-12-18T05:50:51;-3.10;99.90
5278;DHT22;2662;51.194;6.614;2022-12-18T05:53:19;-3.10;99.90
5278;DHT22;2662;51.194;6.614;2022-12-18T05:55:47;-3.10;99.90
5278;DHT22;2662;51.194;6.614;2022-12-18T05:58:15;-3.10;99.90
5278;DHT22;2662;51.194;6.614;2022-12-18T06:00:45;-3.10;99.90
5278;DHT22;2662;51.194;6.614;2022-12-18T06:03:13;-3.10;99.90
5278;DHT22;2662;51.194;6.614;2022-12-18T06:05:41;-3.10;99.90
5278;DHT22;2662;51.194;6.614;2022-12-18T06:08:09;-3.10;99.90
5278;DHT22;2662;51.194;6.614;2022-12-18T06:10:36;-3.10;99.90
5278;DHT22;2662;51.194;6.614;2022-12-18T06:13:05;-3.10;99.90
5278;DHT22;2662;51.194;6.614;2022-12-18T06:15:36;-3.10;99.90
5278;DHT22;2662;51.194;6.614;2022-12-18T06:18:03;-3.10;99.90
5278;DHT22;2662;51.194;6.614;2022-12-18T06:20:29;-3.10;99.90
5278;DHT22;2662;51.194;6.614;2022-12-18T06:22:56;-3.10;99.90
5278;DHT22;2662;51.194;6.614;2022-12-18T06:25:23;-3.20;99.90
5278;DHT22;2662;51.194;6.614;2022-12-18T06:27:50;-3.20;99.90
5278;DHT22;2662;51.194;6.614;2022-12-18T06:30:16;-3.20;99.90
5278;DHT22;2662;51.194;6.614;2022-12-18T06:32:44;-3.10;99.90
5278;DHT22;2662;51.194;6.614;2022-12-18T06:35:11;-3.20;99.90
5278;DHT22;2662;51.194;6.614;2022-12-18T06:37:38;-3.20;99.90
5278;DHT22;2662;51.194;6.614;2022-12-18T06:40:06;-3.20;99.90
5278;DHT22;2662;51.194;6.614;2022-12-18T06:42:33;-3.20;99.90
5278;DHT22;2662;51.194;6.614;2022-12-18T06:44:59;-3.10;99.90
5278;DHT22;2662;51.194;6.614;2022-12-18T06:47:26;-3.10;99.90
5278;DHT22;2662;51.194;6.614;2022-12-18T06:49:54;-3.10;99.90
5278;DHT22;2662;51.194;6.614;2022-12-18T06:52:21;-3.10;99.90
5278;DHT22;2662;51.194;6.614;2022-12-18T06:54:47;-3.10;99.90
5278;DHT22;2662;51.194;6.614;2022-12-18T06:57:14;-3.10;99.90
5278;DHT22;2662;51.194;6.614;2022-12-18T06:59:41;-3.10;99.90
5278;DHT22;2662;51.194;6.614;2022-12-18T07:02:10;-3.00;99.90
5278;DHT22;2662;51.194;6.614;2022-12-18T07:04:37;-3.10;99.90
5278;DHT22;2662;51.194;6.614;2022-12-18T07:07:05;-3.00;99.90
5278;DHT22;2662;51.194;6.614;2022-12-18T07:09:32;-3.10;99.90
5278;DHT22;2662;51.194;6.614;2022-12-18T07:11:59;-3.00;99.90
5278;DHT22;2662;51.194;6.614;2022-12-18T07:14:25;-3.00;99.90
5278;DHT22;2662;51.194;6.614;2022-12-18T07:16:52;-3.00;99.90
5278;DHT22;2662;51.194;6.614;2022-12-18T07:19:19;-3.00;99.90
5278;DHT22;2662;51.194;6.614;2022-12-18T07:21:53;-3.00;99.90
5278;DHT22;2662;51.194;6.614;2022-12-18T07:24:21;-3.00;99.90
5278;DHT22;2662;51.194;6.614;2022-12-18T07:26:48;-3.00;99.90
5278;DHT22;2662;51.194;6.614;2022-12-18T07:29:14;-3.00;99.90
5278;DHT22;2662;51.194;6.614;2022-12-18T07:31:41;-2.90;99.90
5278;DHT22;2662;51.194;6.614;2022-12-18T07:34:10;-3.00;99.90
5278;DHT22;2662;51.194;6.614;2022-12-18T07:36:37;-2.90;99.90
5278;DHT22;2662;51.194;6.614;2022-12-18T07:39:04;-3.00;99.90
5278;DHT22;2662;51.194;6.614;2022-12-18T07:41:32;-2.90;99.90
5278;DHT22;2662;51.194;6.614;2022-12-18T07:43:59;-2.90;99.90
5278;DHT22;2662;51.194;6.614;2022-12-18T07:46:26;-2.90;99.90
5278;DHT22;2662;51.194;6.614;2022-12-18T07:48:52;-2.80;99.90
5278;DHT22;2662;51.194;6.614;2022-12-18T07:51:19;-2.80;99.90
5278;DHT22;2662;51.194;6.614;2022-12-18T07:53:46;-2.80;99.90
5278;DHT22;2662;51.194;6.614;2022-12-18T07:56:13;-2.80;99.90
5278;DHT22;2662;51.194;6.614;2022-12-18T07:58:41;-2.70;99.90
5278;DHT22;2662;51.194;6.614;2022-12-18T08:01:11;-2.80;99.90
5278;DHT22;2662;51.194;6.614;2022-12-18T08:03:39;-2.70;99.90
5278;DHT22;2662;51.194;6.614;2022-12-18T08:06:07;-2.70;99.90
5278;DHT22;2662;51.194;6.614;2022-12-18T08:08:35;-2.70;99.90
5278;DHT22;2662;51.194;6.614;2022-12-18T08:11:02;-2.70;99.90
5278;DHT22;2662;51.194;6.614;2022-12-18T08:13:29;-2.60;99.90
5278;DHT22;2662;51.194;6.614;2022-12-18T08:15:58;-2.60;99.90
5278;DHT22;2662;51.194;6.614;2022-12-18T08:18:25;-2.50;99.90
5278;DHT22;2662;51.194;6.614;2022-12-18T08:20:52;-2.40;99.90
5278;DHT22;2662;51.194;6.614;2022-12-18T08:23:19;-2.40;99.90
5278;DHT22;2662;51.194;6.614;2022-12-18T08:25:46;-2.20;99.90
5278;DHT22;2662;51.194;6.614;2022-12-18T08:28:13;-2.10;99.90
5278;DHT22;2662;51.194;6.614;2022-12-18T08:30:39;-2.00;99.90
5278;DHT22;2662;51.194;6.614;2022-12-18T08:33:09;-1.90;99.90
5278;DHT22;2662;51.194;6.614;2022-12-18T08:35:35;-1.80;99.90
5278;DHT22;2662;51.194;6.614;2022-12-18T08:38:03;-1.50;99.90
5278;DHT22;2662;51.194;6.614;2022-12-18T08:40:30;-1.10;99.90
5278;DHT22;2662;51.194;6.614;2022-12-18T08:42:56;-0.70;99.90
5278;DHT22;2662;51.194;6.614;2022-12-18T08:45:40;-0.50;99.90
5278;DHT22;2662;51.194;6.614;2022-12-18T08:48:09;-0.30;99.90
5278;DHT22;2662;51.194;6.614;2022-12-18T08:50:36;0.10;99.90
5278;DHT22;2662;51.194;6.614;2022-12-18T08:53:02;0.30;99.90
5278;DHT22;2662;51.194;6.614;2022-12-18T08:55:29;0.40;99.90
5278;DHT22;2662;51.194;6.614;2022-12-18T08:57:56;0.40;99.90
5278;DHT22;2662;51.194;6.614;2022-12-18T09:00:22;0.40;99.90
5278;DHT22;2662;51.194;6.614;2022-12-18T09:02:49;0.40;99.90
5278;DHT22;2662;51.194;6.614;2022-12-18T09:05:17;0.50;99.90
5278;DHT22;2662;51.194;6.614;2022-12-18T09:07:44;0.40;99.90
5278;DHT22;2662;51.194;6.614;2022-12-18T09:10:10;0.20;99.90
5278;DHT22;2662;51.194;6.614;2022-12-18T09:12:37;0.20;99.90
5278;DHT22;2662;51.194;6.614;2022-12-18T09:15:05;0.20;99.90
5278;DHT22;2662;51.194;6.614;2022-12-18T09:17:32;0.10;99.90
5278;DHT22;2662;51.194;6.614;2022-12-18T09:19:58;0.10;99.90
5278;DHT22;2662;51.194;6.614;2022-12-18T09:22:26;0.10;99.90
5278;DHT22;2662;51.194;6.614;2022-12-18T09:24:53;0.20;99.90
5278;DHT22;2662;51.194;6.614;2022-12-18T09:27:20;0.40;99.90
5278;DHT22;2662;51.194;6.614;2022-12-18T09:29:46;0.40;99.90
5278;DHT22;2662;51.194;6.614;2022-12-18T09:32:13;0.50;99.90
5278;DHT22;2662;51.194;6.614;2022-12-18T09:34:40;0.50;99.90
5278;DHT22;2662;51.194;6.614;2022-12-18T09:37:07;0.60;99.90
5278;DHT22;2662;51.194;6.614;2022-12-18T09:39:38;0.60;99.90
5278;DHT22;2662;51.194;6.614;2022-12-18T09:42:05;0.60;99.90
5278;DHT22;2662;51.194;6.614;2022-12-18T09:44:35;0.70;99.90
5278;DHT22;2662;51.194;6.614;2022-12-18T09:47:09;0.60;99.90
5278;DHT22;2662;51.194;6.614;2022-12-18T09:49:40;0.80;99.90
5278;DHT22;2662;51.194;6.614;2022-12-18T09:52:13;0.90;99.90
5278;DHT22;2662;51.194;6.614;2022-12-18T09:54:47;1.00;99.90
5278;DHT22;2662;51.194;6.614;2022-12-18T09:57:17;0.80;99.90
5278;DHT22;2662;51.194;6.614;2022-12-18T09:59:48;0.80;99.90
5278;DHT22;2662;51.194;6.614;2022-12-18T10:02:18;0.70;99.90
5278;DHT22;2662;51.194;6.614;2022-12-18T10:04:50;0.60;99.90
5278;DHT22;2662;51.194;6.614;2022-12-18T10:07:24;0.60;99.90
5278;DHT22;2662;51.194;6.614;2022-12-18T10:10:01;0.60;99.90
5278;DHT22;2662;51.194;6.614;2022-12-18T10:12:34;0.60;99.90
5278;DHT22;2662;51.194;6.614;2022-12-18T10:15:10;0.70;99.90
5278;DHT22;2662;51.194;6.614;2022-12-18T10:17:43;0.70;99.90
5278;DHT22;2662;51.194;6.614;2022-12-18T10:20:16;0.80;99.90
5278;DHT22;2662;51.194;6.614;2022-12-18T10:22:53;0.80;99.90
5278;DHT22;2662;51.194;6.614;2022-12-18T10:25:26;0.80;99.90
5278;DHT22;2662;51.194;6.614;2022-12-18T10:27:57;0.80;99.90
5278;DHT22;2662;51.194;6.614;2022-12-18T10:30:25;0.70;99.90
5278;DHT22;2662;51.194;6.614;2022-12-18T10:32:52;0.80;99.90
5278;DHT22;2662;51.194;6.614;2022-12-18T10:35:22;0.80;99.90
5278;DHT22;2662;51.194;6.614;2022-12-18T10:38:03;0.80;99.90
5278;DHT22;2662;51.194;6.614;2022-12-18T10:40:32;0.80;99.90
5278;DHT22;2662;51.194;6.614;2022-12-18T10:43:04;0.80;99.90
5278;DHT22;2662;51.194;6.614;2022-12-18T10:45:31;0.80;99.90
5278;DHT22;2662;51.194;6.614;2022-12-18T10:47:58;0.70;99.90
5278;DHT22;2662;51.194;6.614;2022-12-18T10:50:29;0.70;99.90
5278;DHT22;2662;51.194;6.614;2022-12-18T10:52:58;0.70;99.90
5278;DHT22;2662;51.194;6.614;2022-12-18T10:55:30;0.80;99.90
5278;DHT22;2662;51.194;6.614;2022-12-18T10:58:13;0.90;99.90
5278;DHT22;2662;51.194;6.614;2022-12-18T11:00:43;1.10;99.90
5278;DHT22;2662;51.194;6.614;2022-12-18T11:03:30;1.20;99.90
5278;DHT22;2662;51.194;6.614;2022-12-18T11:06:03;1.20;99.90
5278;DHT22;2662;51.194;6.614;2022-12-18T11:08:30;1.30;99.90
5278;DHT22;2662;51.194;6.614;2022-12-18T11:10:56;1.30;99.90
5278;DHT22;2662;51.194;6.614;2022-12-18T11:13:26;1.20;99.90
5278;DHT22;2662;51.194;6.614;2022-12-18T11:15:53;1.30;99.90
5278;DHT22;2662;51.194;6.614;2022-12-18T11:18:25;1.30;99.90
5278;DHT22;2662;51.194;6.614;2022-12-18T11:20:54;1.20;99.90
5278;DHT22;2662;51.194;6.614;2022-12-18T11:23:23;1.20;99.90
5278;DHT22;2662;51.194;6.614;2022-12-18T11:25:52;1.20;99.90
5278;DHT22;2662;51.194;6.614;2022-12-18T11:28:37;1.20;99.90
5278;DHT22;2662;51.194;6.614;2022-12-18T11:31:20;1.20;99.90
5278;DHT22;2662;51.194;6.614;2022-12-18T11:33:52;1.40;99.90
5278;DHT22;2662;51.194;6.614;2022-12-18T11:36:22;1.40;99.90
5278;DHT22;2662;51.194;6.614;2022-12-18T11:38:50;1.40;99.90
5278;DHT22;2662;51.194;6.614;2022-12-18T11:41:21;1.30;99.90
5278;DHT22;2662;51.194;6.614;2022-12-18T11:44:14;1.40;99.90
5278;DHT22;2662;51.194;6.614;2022-12-18T11:46:46;1.30;99.90
5278;DHT22;2662;51.194;6.614;2022-12-18T11:49:18;1.40;99.90
5278;DHT22;2662;51.194;6.614;2022-12-18T11:51:50;1.40;99.90
5278;DHT22;2662;51.194;6.614;2022-12-18T11:54:18;1.50;99.90
5278;DHT22;2662;51.194;6.614;2022-12-18T11:56:49;1.40;99.90
5278;DHT22;2662;51.194;6.614;2022-12-18T11:59:23;1.50;99.90
5278;DHT22;2662;51.194;6.614;2022-12-18T12:01:54;1.50;99.90
5278;DHT22;2662;51.194;6.614;2022-12-18T12:04:47;1.50;99.90
5278;DHT22;2662;51.194;6.614;2022-12-18T12:07:24;1.60;99.90
5278;DHT22;2662;51.194;6.614;2022-12-18T12:10:00;1.60;99.90
5278;DHT22;2662;51.194;6.614;2022-12-18T12:12:38;1.60;99.90
5278;DHT22;2662;51.194;6.614;2022-12-18T12:15:24;1.60;99.90
5278;DHT22;2662;51.194;6.614;2022-12-18T12:18:01;1.60;99.90
5278;DHT22;2662;51.194;6.614;2022-12-18T12:20:40;1.60;99.90
5278;DHT22;2662;51.194;6.614;2022-12-18T12:23:15;1.60;99.90
5278;DHT22;2662;51.194;6.614;2022-12-18T12:25:50;1.50;99.90
5278;DHT22;2662;51.194;6.614;2022-12-18T12:28:28;1.50;99.90
5278;DHT22;2662;51.194;6.614;2022-12-18T12:31:05;1.50;99.90
5278;DHT22;2662;51.194;6.614;2022-12-18T12:33:39;1.50;99.90
5278;DHT22;2662;51.194;6.614;2022-12-18T12:36:15;1.50;99.90
5278;DHT22;2662;51.194;6.614;2022-12-18T12:38:48;1.50;99.90
5278;DHT22;2662;51.194;6.614;2022-12-18T12:41:18;1.60;99.90
5278;DHT22;2662;51.194;6.614;2022-12-18T12:44:06;1.60;99.90
5278;DHT22;2662;51.194;6.614;2022-12-18T12:46:38;1.60;99.90
5278;DHT22;2662;51.194;6.614;2022-12-18T12:49:09;1.40;99.90
5278;DHT22;2662;51.194;6.614;2022-12-18T12:51:40;1.30;99.90
5278;DHT22;2662;51.194;6.614;2022-12-18T12:54:14;1.20;99.90
5278;DHT22;2662;51.194;6.614;2022-12-18T12:56:45;1.10;99.90
5278;DHT22;2662;51.194;6.614;2022-12-18T12:59:19;1.00;99.90
5278;DHT22;2662;51.194;6.614;2022-12-18T13:01:54;1.00;99.90
5278;DHT22;2662;51.194;6.614;2022-12-18T13:04:30;1.10;99.90
5278;DHT22;2662;51.194;6.614;2022-12-18T13:07:06;1.20;99.90
5278;DHT22;2662;51.194;6.614;2022-12-18T13:12:53;1.30;99.90
5278;DHT22;2662;51.194;6.614;2022-12-18T13:15:24;1.10;99.90
5278;DHT22;2662;51.194;6.614;2022-12-18T13:18:04;1.10;99.90
5278;DHT22;2662;51.194;6.614;2022-12-18T13:20:36;1.20;99.90
5278;DHT22;2662;51.194;6.614;2022-12-18T13:23:26;1.30;99.90
5278;DHT22;2662;51.194;6.614;2022-12-18T13:25:54;1.20;99.90
5278;DHT22;2662;51.194;6.614;2022-12-18T13:28:23;1.20;99.90
5278;DHT22;2662;51.194;6.614;2022-12-18T13:30:53;1.20;99.90
5278;DHT22;2662;51.194;6.614;2022-12-18T13:33:42;1.30;99.90
5278;DHT22;2662;51.194;6.614;2022-12-18T13:36:14;1.30;99.90
5278;DHT22;2662;51.194;6.614;2022-12-18T13:38:41;1.20;99.90
5278;DHT22;2662;51.194;6.614;2022-12-18T13:41:25;1.20;99.90
5278;DHT22;2662;51.194;6.614;2022-12-18T13:43:55;1.20;99.90
5278;DHT22;2662;51.194;6.614;2022-12-18T13:46:26;1.20;99.90
5278;DHT22;2662;51.194;6.614;2022-12-18T13:48:59;1.10;99.90
5278;DHT22;2662;51.194;6.614;2022-12-18T13:51:28;1.20;99.90
5278;DHT22;2662;51.194;6.614;2022-12-18T13:53:58;1.00;99.90
5278;DHT22;2662;51.194;6.614;2022-12-18T13:56:27;1.00;99.90
5278;DHT22;2662;51.194;6.614;2022-12-18T13:59:14;0.90;99.90
5278;DHT22;2662;51.194;6.614;2022-12-18T14:01:43;0.90;99.90
5278;DHT22;2662;51.194;6.614;2022-12-18T14:04:12;0.80;99.90
5278;DHT22;2662;51.194;6.614;2022-12-18T14:06:39;0.90;99.90
5278;DHT22;2662;51.194;6.614;2022-12-18T14:09:08;0.80;99.90
5278;DHT22;2662;51.194;6.614;2022-12-18T14:11:38;0.80;99.90
5278;DHT22;2662;51.194;6.614;2022-12-18T14:14:05;0.70;99.90
5278;DHT22;2662;51.194;6.614;2022-12-18T14:16:34;0.70;99.90
5278;DHT22;2662;51.194;6.614;2022-12-18T14:19:01;0.70;99.90
5278;DHT22;2662;51.194;6.614;2022-12-18T14:21:29;0.70;99.90
5278;DHT22;2662;51.194;6.614;2022-12-18T14:24:06;0.70;99.90
5278;DHT22;2662;51.194;6.614;2022-12-18T14:26:38;0.70;99.90
5278;DHT22;2662;51.194;6.614;2022-12-18T14:29:19;0.70;99.90
5278;DHT22;2662;51.194;6.614;2022-12-18T14:32:04;0.70;99.90
5278;DHT22;2662;51.194;6.614;2022-12-18T14:34:31;0.70;99.90
5278;DHT22;2662;51.194;6.614;2022-12-18T14:36:58;0.70;99.90
5278;DHT22;2662;51.194;6.614;2022-12-18T14:39:25;0.70;99.90
5278;DHT22;2662;51.194;6.614;2022-12-18T14:41:52;0.60;99.90
5278;DHT22;2662;51.194;6.614;2022-12-18T14:44:19;0.60;99.90
5278;DHT22;2662;51.194;6.614;2022-12-18T14:46:49;0.60;99.90
5278;DHT22;2662;51.194;6.614;2022-12-18T14:49:23;0.60;99.90
5278;DHT22;2662;51.194;6.614;2022-12-18T14:51:52;0.60;99.90
5278;DHT22;2662;51.194;6.614;2022-12-18T14:54:20;0.50;99.90
5278;DHT22;2662;51.194;6.614;2022-12-18T14:56:49;0.60;99.90
5278;DHT22;2662;51.194;6.614;2022-12-18T14:59:20;0.60;99.90
5278;DHT22;2662;51.194;6.614;2022-12-18T15:01:56;0.50;99.90
5278;DHT22;2662;51.194;6.614;2022-12-18T15:04:26;0.50;99.90
5278;DHT22;2662;51.194;6.614;2022-12-18T15:07:13;0.50;99.90
5278;DHT22;2662;51.194;6.614;2022-12-18T15:09:42;0.40;99.90
5278;DHT22;2662;51.194;6.614;2022-12-18T15:12:25;0.30;99.90
5278;DHT22;2662;51.194;6.614;2022-12-18T15:14:53;0.20;99.90
5278;DHT22;2662;51.194;6.614;2022-12-18T15:17:22;0.20;99.90
5278;DHT22;2662;51.194;6.614;2022-12-18T15:19:52;0.20;99.90
5278;DHT22;2662;51.194;6.614;2022-12-18T15:22:21;0.20;99.90
5278;DHT22;2662;51.194;6.614;2022-12-18T15:24:49;0.20;99.90
5278;DHT22;2662;51.194;6.614;2022-12-18T15:27:22;0.30;99.90
5278;DHT22;2662;51.194;6.614;2022-12-18T15:30:00;0.20;99.90
5278;DHT22;2662;51.194;6.614;2022-12-18T15:32:28;0.20;99.90
5278;DHT22;2662;51.194;6.614;2022-12-18T15:35:03;0.20;99.90
5278;DHT22;2662;51.194;6.614;2022-12-18T15:37:30;0.20;99.90
5278;DHT22;2662;51.194;6.614;2022-12-18T15:39:57;0.10;99.90
5278;DHT22;2662;51.194;6.614;2022-12-18T15:42:23;0.10;99.90
5278;DHT22;2662;51.194;6.614;2022-12-18T15:45:11;0.10;99.90
5278;DHT22;2662;51.194;6.614;2022-12-18T15:47:39;0.10;99.90
5278;DHT22;2662;51.194;6.614;2022-12-18T15:50:07;0.10;99.90
5278;DHT22;2662;51.194;6.614;2022-12-18T15:52:39;0.10;99.90
5278;DHT22;2662;51.194;6.614;2022-12-18T15:55:10;0.10;99.90
5278;DHT22;2662;51.194;6.614;2022-12-18T15:57:57;0.10;99.90
5278;DHT22;2662;51.194;6.614;2022-12-18T16:00:24;0.10;99.90
5278;DHT22;2662;51.194;6.614;2022-12-18T16:02:52;0.00;99.90
5278;DHT22;2662;51.194;6.614;2022-12-18T16:05:20;0.10;99.90
5278;DHT22;2662;51.194;6.614;2022-12-18T16:07:47;0.10;99.90
5278;DHT22;2662;51.194;6.614;2022-12-18T16:10:14;0.10;99.90
5278;DHT22;2662;51.194;6.614;2022-12-18T16:12:41;0.00;99.90
5278;DHT22;2662;51.194;6.614;2022-12-18T16:15:10;0.00;99.90
5278;DHT22;2662;51.194;6.614;2022-12-18T16:17:39;0.00;99.90
5278;DHT22;2662;51.194;6.614;2022-12-18T16:20:12;0.00;99.90
5278;DHT22;2662;51.194;6.614;2022-12-18T16:22:40;0.00;99.90
5278;DHT22;2662;51.194;6.614;2022-12-18T16:25:15;0.00;99.90
5278;DHT22;2662;51.194;6.614;2022-12-18T16:27:43;0.00;99.90
5278;DHT22;2662;51.194;6.614;2022-12-18T16:30:13;0.00;99.90
5278;DHT22;2662;51.194;6.614;2022-12-18T16:32:40;0.00;99.90